createdAt,value
2023-03-17T00:03:29.522Z,51.75
2023-03-17T00:05:59.977Z,51.40
2023-03-17T00:08:32.714Z,50.03
2023-03-17T00:11:02.502Z,57.30
2023-03-17T00:16:03.408Z,60.53
2023-03-17T00:18:35.612Z,59.13
2023-03-17T00:21:05.038Z,66.00
2023-03-17T00:23:35.421Z,53.83
2023-03-17T00:28:35.446Z,51.60
2023-03-17T00:31:13.633Z,56.53
2023-03-17T00:33:46.676Z,51.42
2023-03-17T00:36:18.971Z,52.85
2023-03-17T00:38:48.781Z,46.90
2023-03-17T00:41:18.411Z,55.10
2023-03-17T00:46:20.091Z,57.80
2023-03-17T00:48:51.324Z,50.95
2023-03-17T00:51:21.283Z,51.85
2023-03-17T00:53:50.833Z,43.85
2023-03-17T00:56:22.462Z,47.20
2023-03-17T00:58:52.271Z,49.70
2023-03-17T01:01:21.373Z,42.90
2023-03-17T01:03:52.882Z,58.15
2023-03-17T01:06:22.322Z,60.83
2023-03-17T01:08:52.392Z,56.33
2023-03-17T01:11:22.820Z,52.05
2023-03-17T01:13:52.820Z,52.88
2023-03-17T01:16:22.621Z,44.15
2023-03-17T01:18:56.090Z,51.88
2023-03-17T01:21:25.477Z,50.05
2023-03-17T01:23:55.130Z,52.55
2023-03-17T01:26:26.033Z,48.47
2023-03-17T01:28:55.560Z,53.30
2023-03-17T01:31:26.461Z,45.38
2023-03-17T01:33:57.286Z,52.03
2023-03-17T01:36:26.515Z,52.10
2023-03-17T01:38:55.838Z,54.00
2023-03-17T01:41:25.124Z,44.13
2023-03-17T01:43:54.474Z,57.20
2023-03-17T01:46:29.651Z,50.42
2023-03-17T01:49:09.537Z,49.47
2023-03-17T01:51:44.632Z,42.55
2023-03-17T01:54:18.317Z,51.40
2023-03-17T01:56:51.782Z,47.30
2023-03-17T01:59:27.230Z,43.35
2023-03-17T02:02:02.966Z,49.42
2023-03-17T02:04:35.005Z,49.13
2023-03-17T02:07:05.364Z,40.75
2023-03-17T02:09:35.634Z,43.72
2023-03-17T02:14:34.914Z,48.28
2023-03-17T02:17:04.737Z,47.38
2023-03-17T02:19:35.802Z,41.40
2023-03-17T02:22:06.339Z,45.10
2023-03-17T02:24:39.021Z,45.08
2023-03-17T02:27:13.516Z,50.95
2023-03-17T02:29:46.536Z,48.05
2023-03-17T02:32:21.738Z,45.22
2023-03-17T02:34:51.420Z,40.35
2023-03-17T02:37:21.968Z,46.47
2023-03-17T02:39:51.375Z,50.80
2023-03-17T02:42:20.415Z,50.13
2023-03-17T02:44:50.746Z,41.10
2023-03-17T02:47:21.695Z,44.25
2023-03-17T02:49:51.845Z,42.38
2023-03-17T02:52:22.511Z,43.70
2023-03-17T02:54:52.247Z,33.58
2023-03-17T02:57:21.488Z,44.20
2023-03-17T02:59:50.808Z,45.05
2023-03-17T03:02:19.981Z,38.53
2023-03-17T03:04:50.450Z,38.00
2023-03-17T03:09:50.302Z,38.70
2023-03-17T03:12:19.620Z,44.10
2023-03-17T03:14:49.014Z,46.92
2023-03-17T03:17:18.488Z,49.80
2023-03-17T03:19:48.596Z,41.78
2023-03-17T03:22:17.702Z,43.22
2023-03-17T03:24:47.289Z,42.58
2023-03-17T03:27:18.031Z,38.83
2023-03-17T03:29:47.769Z,37.72
2023-03-17T03:32:17.136Z,41.45
2023-03-17T03:34:47.002Z,38.10
2023-03-17T03:37:16.424Z,37.42
2023-03-17T03:39:45.857Z,37.95
2023-03-17T03:42:16.622Z,35.17
2023-03-17T03:44:46.028Z,37.78
2023-03-17T03:47:15.098Z,41.93
2023-03-17T03:49:44.550Z,33.05
2023-03-17T03:52:13.537Z,33.53
2023-03-17T03:54:43.193Z,33.30
2023-03-17T03:57:12.694Z,40.08
2023-03-17T03:59:43.860Z,37.10
2023-03-17T04:02:13.142Z,44.50
2023-03-17T04:04:42.812Z,31.98
2023-03-17T04:07:12.668Z,33.03
2023-03-17T04:09:42.634Z,40.42
2023-03-17T04:12:12.392Z,35.08
2023-03-17T04:17:14.084Z,33.70
2023-03-17T04:19:43.506Z,41.95
2023-03-17T04:22:13.460Z,40.53
2023-03-17T04:24:42.910Z,44.92
2023-03-17T04:27:12.416Z,39.25
2023-03-17T04:29:43.969Z,39.20
2023-03-17T04:32:15.010Z,33.60
2023-03-17T04:34:45.012Z,42.78
2023-03-17T04:37:15.266Z,44.95
2023-03-17T04:39:44.692Z,37.17
2023-03-17T04:42:14.036Z,46.80
2023-03-17T04:44:44.902Z,45.80
2023-03-17T04:47:14.153Z,43.83
2023-03-17T04:49:43.655Z,45.05
2023-03-17T04:52:13.049Z,44.72
2023-03-17T04:54:42.596Z,45.72
2023-03-17T04:57:12.002Z,48.40
2023-03-17T04:59:41.489Z,41.60
2023-03-17T05:02:12.464Z,42.58
2023-03-17T05:04:42.147Z,52.63
2023-03-17T05:07:11.310Z,51.72
2023-03-17T05:09:40.682Z,51.58
2023-03-17T05:12:10.989Z,51.80
2023-03-17T05:14:40.565Z,44.75
2023-03-17T05:17:11.591Z,50.53
2023-03-17T05:19:41.031Z,69.53
2023-03-17T05:22:10.214Z,54.80
2023-03-17T05:24:40.850Z,56.05
2023-03-17T05:27:10.051Z,53.40
2023-03-17T05:29:39.689Z,60.17
2023-03-17T05:32:09.098Z,61.55
2023-03-17T05:34:40.088Z,64.40
2023-03-17T05:37:10.332Z,49.35
2023-03-17T05:39:39.921Z,61.88
2023-03-17T05:42:09.302Z,73.18
2023-03-17T05:44:38.711Z,78.18
2023-03-17T05:47:08.538Z,71.72
2023-03-17T05:49:39.348Z,68.30
2023-03-17T05:52:08.955Z,62.35
2023-03-17T05:54:38.805Z,80.65
2023-03-17T05:57:08.005Z,78.97
2023-03-17T05:59:37.514Z,80.18
2023-03-17T06:02:06.813Z,66.55
2023-03-17T06:04:36.459Z,66.00
2023-03-17T06:07:07.419Z,63.45
2023-03-17T06:09:37.212Z,62.80
2023-03-17T06:12:06.940Z,72.03
2023-03-17T06:14:36.731Z,75.43
2023-03-17T06:17:06.385Z,72.85
2023-03-17T06:19:36.869Z,77.10
2023-03-17T06:24:37.227Z,73.22
2023-03-17T06:27:06.446Z,55.95
2023-03-17T06:29:35.976Z,53.78
2023-03-17T06:32:19.523Z,54.85
2023-03-17T06:34:50.062Z,46.42
2023-03-17T06:37:21.384Z,47.67
2023-03-17T06:39:50.769Z,43.25
2023-03-17T06:42:20.198Z,45.27
2023-03-17T06:44:52.347Z,47.95
2023-03-17T06:47:23.037Z,50.40
2023-03-17T06:49:53.868Z,43.88
2023-03-17T06:52:24.317Z,53.20
2023-03-17T06:54:54.167Z,52.78
2023-03-17T06:57:23.667Z,48.35
2023-03-17T06:59:52.969Z,52.72
2023-03-17T07:02:23.046Z,54.28
2023-03-17T07:04:53.500Z,51.67
2023-03-17T07:07:25.616Z,42.08
2023-03-17T07:09:55.229Z,39.80
2023-03-17T07:12:24.325Z,42.88
2023-03-17T07:14:54.511Z,43.63
2023-03-17T07:19:53.532Z,37.75
2023-03-17T07:22:24.081Z,40.97
2023-03-17T07:24:53.493Z,39.33
2023-03-17T07:27:25.450Z,38.30
2023-03-17T07:29:55.038Z,42.95
2023-03-17T07:32:24.746Z,42.15
2023-03-17T07:34:54.724Z,39.83
2023-03-17T07:37:26.764Z,36.13
2023-03-17T07:39:56.284Z,44.85
2023-03-17T07:42:25.380Z,39.97
2023-03-17T07:44:54.908Z,36.55
2023-03-17T07:47:23.960Z,35.25
2023-03-17T07:49:53.522Z,36.80
2023-03-17T07:52:22.716Z,34.88
2023-03-17T07:54:54.036Z,36.00
2023-03-17T07:57:23.503Z,38.78
2023-03-17T07:59:52.957Z,39.05
2023-03-17T08:02:22.524Z,38.13
2023-03-17T08:04:52.302Z,35.45
2023-03-17T08:07:22.643Z,38.95
2023-03-17T08:09:54.072Z,36.00
2023-03-17T08:12:23.411Z,32.75
2023-03-17T08:14:52.716Z,34.20
2023-03-17T08:17:21.805Z,35.63
2023-03-17T08:19:51.435Z,36.90
2023-03-17T08:22:20.616Z,35.25
2023-03-17T08:24:50.022Z,37.35
2023-03-17T08:27:21.639Z,40.35
2023-03-17T08:29:51.509Z,34.85
2023-03-17T08:32:20.831Z,35.58
2023-03-17T08:34:53.703Z,30.38
2023-03-17T08:37:24.765Z,23.77
2023-03-17T08:42:24.649Z,25.97
2023-03-17T08:44:54.287Z,27.45
2023-03-17T08:47:23.587Z,32.72
2023-03-17T08:49:53.368Z,29.23
2023-03-17T08:52:22.622Z,31.27
2023-03-17T08:54:54.732Z,28.70
2023-03-17T08:57:25.925Z,26.83
2023-03-17T08:59:55.887Z,25.35
2023-03-17T09:04:54.463Z,30.23
2023-03-17T09:07:23.529Z,29.02
2023-03-17T09:09:53.163Z,30.10
2023-03-17T09:12:22.475Z,28.05
2023-03-17T09:14:53.494Z,23.45
2023-03-17T09:17:22.826Z,28.15
2023-03-17T09:19:52.398Z,30.77
2023-03-17T09:22:21.833Z,27.25
2023-03-17T09:24:51.402Z,31.08
2023-03-17T09:27:21.012Z,29.95
2023-03-17T09:29:50.506Z,27.65
2023-03-17T09:32:21.231Z,23.90
2023-03-17T09:34:51.726Z,24.10
2023-03-17T09:37:21.425Z,23.20
2023-03-17T09:39:51.331Z,19.02
2023-03-17T09:42:36.508Z,23.52
2023-03-17T09:45:19.989Z,21.80
2023-03-17T09:48:12.339Z,22.25
2023-03-17T09:50:49.989Z,20.58
2023-03-17T09:53:22.880Z,17.88
2023-03-17T09:55:58.013Z,17.02
2023-03-17T09:58:32.272Z,18.23
2023-03-17T10:01:05.205Z,19.25
2023-03-17T10:03:37.723Z,18.67
2023-03-17T10:06:35.057Z,21.80
2023-03-17T10:09:26.210Z,14.93
2023-03-17T10:12:07.628Z,19.55
2023-03-17T10:14:55.730Z,12.55
2023-03-17T10:17:31.753Z,22.77
2023-03-17T10:20:10.605Z,13.25
2023-03-17T10:22:46.244Z,20.48
2023-03-17T10:25:17.788Z,18.30
2023-03-17T10:27:52.228Z,17.95
2023-03-17T10:30:23.769Z,11.18
2023-03-17T10:32:56.459Z,16.52
2023-03-17T10:35:28.044Z,17.02
2023-03-17T10:38:13.485Z,18.98
2023-03-17T10:40:45.457Z,20.75
2023-03-17T10:43:20.630Z,17.10
2023-03-17T10:46:00.138Z,17.80
2023-03-17T10:48:32.361Z,19.60
2023-03-17T10:51:09.280Z,24.23
2023-03-17T10:53:43.446Z,19.33
2023-03-17T10:56:23.606Z,13.23
2023-03-17T10:58:55.554Z,22.23
2023-03-17T11:01:31.140Z,13.82
2023-03-17T11:04:03.931Z,12.52
2023-03-17T11:06:39.394Z,19.58
2023-03-17T11:09:12.539Z,13.50
2023-03-17T11:11:47.383Z,11.95
2023-03-17T11:14:18.741Z,12.48
2023-03-17T11:16:55.678Z,15.80
2023-03-17T11:19:32.856Z,15.38
2023-03-17T11:22:11.843Z,18.45
2023-03-17T11:24:52.882Z,16.55
2023-03-17T11:27:31.709Z,26.75
2023-03-17T11:30:26.574Z,18.13
2023-03-17T11:33:01.061Z,21.48
2023-03-17T11:35:51.602Z,17.77
2023-03-17T11:38:26.038Z,19.02
2023-03-17T11:41:24.356Z,13.40
2023-03-17T11:44:05.811Z,17.42
2023-03-17T11:46:43.639Z,22.40
2023-03-17T11:49:16.058Z,19.42
2023-03-17T11:51:57.262Z,11.68
2023-03-17T11:54:37.507Z,15.30
2023-03-17T11:57:11.271Z,12.30
2023-03-17T11:59:46.561Z,18.70
2023-03-17T12:02:24.398Z,15.48
2023-03-17T12:04:58.367Z,16.05
2023-03-17T12:07:31.685Z,15.32
2023-03-17T12:10:11.679Z,18.33
2023-03-17T12:12:48.310Z,20.90
2023-03-17T12:15:26.777Z,21.35
2023-03-17T12:18:00.557Z,17.17
2023-03-17T12:20:35.056Z,18.90
2023-03-17T12:23:12.224Z,19.70
2023-03-17T12:25:51.048Z,18.50
2023-03-17T12:28:24.551Z,25.80
2023-03-17T12:31:01.816Z,18.77
2023-03-17T12:33:40.117Z,18.88
2023-03-17T12:36:14.850Z,18.13
2023-03-17T12:38:47.595Z,20.15
2023-03-17T12:41:43.791Z,15.13
2023-03-17T12:44:27.747Z,18.15
2023-03-17T12:47:31.812Z,20.27
2023-03-17T12:53:49.210Z,21.02
2023-03-17T12:56:27.540Z,21.33
2023-03-17T12:59:07.064Z,20.27
2023-03-17T13:04:27.153Z,16.83
2023-03-17T13:07:08.854Z,16.27
2023-03-17T13:09:56.225Z,18.40
2023-03-17T13:12:58.715Z,18.80
2023-03-17T13:16:08.119Z,20.60
2023-03-17T13:18:53.452Z,20.73
2023-03-17T13:21:26.509Z,20.48
2023-03-17T13:23:59.170Z,20.92
2023-03-17T13:26:55.584Z,21.52
2023-03-17T13:29:39.836Z,22.20
2023-03-17T13:32:49.304Z,25.15
2023-03-17T13:35:29.142Z,21.42
2023-03-17T13:38:35.777Z,14.30
2023-03-17T13:41:33.102Z,20.45
2023-03-17T13:44:20.954Z,19.73
2023-03-17T13:46:55.243Z,21.88
2023-03-17T13:49:30.627Z,21.17
2023-03-17T13:52:09.769Z,20.02
2023-03-17T13:54:48.438Z,18.48
2023-03-17T13:57:28.097Z,18.30
2023-03-17T14:00:05.223Z,18.98
2023-03-17T14:02:41.115Z,17.88
2023-03-17T14:05:19.375Z,24.05
2023-03-17T14:07:57.436Z,15.02
2023-03-17T14:10:29.765Z,15.90
2023-03-17T14:13:04.528Z,16.45
2023-03-17T14:15:42.225Z,19.60
2023-03-17T14:18:18.523Z,20.90
2023-03-17T14:20:58.782Z,16.85
2023-03-17T14:23:31.146Z,14.57
2023-03-17T14:26:04.815Z,18.20
2023-03-17T14:28:36.057Z,15.70
2023-03-17T14:31:07.813Z,13.75
2023-03-17T14:33:41.854Z,16.60
2023-03-17T14:36:15.648Z,17.67
2023-03-17T14:38:50.458Z,16.95
2023-03-17T14:41:22.753Z,16.65
2023-03-17T14:43:54.469Z,19.83
2023-03-17T14:46:27.941Z,21.88
2023-03-17T14:49:03.023Z,16.40
2023-03-17T14:51:38.258Z,17.50
2023-03-17T14:54:17.268Z,17.70
2023-03-17T14:57:01.633Z,18.30
2023-03-17T14:59:36.259Z,16.75
2023-03-17T15:02:18.644Z,14.88
2023-03-17T15:04:55.336Z,16.27
2023-03-17T15:07:33.720Z,15.40
2023-03-17T15:12:38.035Z,19.25
2023-03-17T15:15:18.952Z,17.13
2023-03-17T15:17:52.498Z,17.08
2023-03-17T15:20:23.815Z,17.15
2023-03-17T15:22:59.603Z,14.05
2023-03-17T15:25:35.657Z,15.00
2023-03-17T15:28:13.475Z,14.85
2023-03-17T15:30:47.498Z,17.60
2023-03-17T15:33:23.185Z,13.93
2023-03-17T15:35:54.041Z,17.35
2023-03-17T15:38:23.320Z,24.20
2023-03-17T15:43:23.664Z,17.33
2023-03-17T15:45:59.287Z,17.10
2023-03-17T15:48:31.824Z,18.90
2023-03-17T15:51:04.912Z,17.90
2023-03-17T15:53:34.643Z,20.05
2023-03-17T15:56:04.006Z,17.80
2023-03-17T15:58:35.966Z,14.63
2023-03-17T16:01:06.483Z,15.82
2023-03-17T16:03:38.104Z,16.27
2023-03-17T16:06:16.902Z,16.83
2023-03-17T16:08:46.506Z,15.55
2023-03-17T16:11:19.162Z,16.05
2023-03-17T16:13:51.083Z,18.48
2023-03-17T16:16:24.841Z,19.00
2023-03-17T16:18:54.154Z,12.95
2023-03-17T16:21:25.924Z,18.88
2023-03-17T16:23:55.782Z,17.88
2023-03-17T16:26:25.093Z,17.27
2023-03-17T16:28:59.194Z,20.90
2023-03-17T16:31:38.897Z,18.13
2023-03-17T16:34:17.904Z,17.08
2023-03-17T16:36:50.411Z,15.52
2023-03-17T16:39:21.340Z,15.32
2023-03-17T16:41:52.137Z,18.10
2023-03-17T16:44:23.629Z,18.60
2023-03-17T16:46:53.103Z,16.55
2023-03-17T16:49:23.798Z,17.60
2023-03-17T16:51:54.638Z,19.20
2023-03-17T16:54:23.724Z,21.27
2023-03-17T16:56:53.160Z,18.02
2023-03-17T16:59:24.509Z,19.70
2023-03-17T17:01:54.988Z,15.60
2023-03-17T17:04:24.893Z,18.17
2023-03-17T17:06:56.744Z,17.65
2023-03-17T17:09:28.661Z,15.48
2023-03-17T17:11:58.774Z,14.55
2023-03-17T17:16:57.531Z,14.57
2023-03-17T17:19:26.526Z,15.65
2023-03-17T17:21:57.984Z,18.17
2023-03-17T17:24:27.289Z,22.38
2023-03-17T17:26:56.890Z,16.38
2023-03-17T17:29:26.155Z,17.73
2023-03-17T17:31:58.335Z,18.05
2023-03-17T17:34:27.525Z,21.42
2023-03-17T17:36:58.800Z,18.58
2023-03-17T17:39:28.031Z,20.05
2023-03-17T17:41:57.330Z,23.35
2023-03-17T17:44:26.561Z,21.85
2023-03-17T17:46:55.953Z,19.13
2023-03-17T17:49:27.200Z,21.05
2023-03-17T17:51:58.143Z,24.00
2023-03-17T17:54:27.432Z,19.42
2023-03-17T17:56:56.707Z,19.48
2023-03-17T17:59:27.004Z,21.42
2023-03-17T18:01:59.892Z,31.52
2023-03-17T18:04:29.228Z,18.02
2023-03-17T18:07:00.054Z,15.32
2023-03-17T18:09:32.892Z,20.17
2023-03-17T18:17:01.964Z,21.30
2023-03-17T18:19:31.246Z,22.15
2023-03-17T18:22:02.418Z,23.52
2023-03-17T18:24:32.105Z,18.92
2023-03-17T18:27:03.867Z,20.40
2023-03-17T18:29:33.200Z,20.00
2023-03-17T18:32:06.067Z,18.45
2023-03-17T18:34:40.759Z,20.85
2023-03-17T18:37:13.885Z,17.67
2023-03-17T18:39:52.489Z,16.45
2023-03-17T18:42:30.503Z,20.08
2023-03-17T18:45:01.475Z,22.90
2023-03-17T18:47:36.621Z,20.60
2023-03-17T18:50:09.073Z,26.13
2023-03-17T18:52:44.953Z,21.20
2023-03-17T18:55:21.440Z,24.23
2023-03-17T18:57:58.079Z,25.75
2023-03-17T19:00:34.371Z,26.80
2023-03-17T19:03:09.944Z,24.60
2023-03-17T19:08:17.978Z,22.35
2023-03-17T19:10:48.616Z,21.35
2023-03-17T19:13:19.308Z,24.67
2023-03-17T19:15:48.790Z,29.77
2023-03-17T19:18:18.866Z,24.85
2023-03-17T19:20:48.021Z,29.27
2023-03-17T19:23:21.324Z,35.15
2023-03-17T19:25:51.575Z,28.75
2023-03-17T19:28:21.938Z,25.95
2023-03-17T19:30:54.163Z,27.35
2023-03-17T19:33:24.162Z,26.13
2023-03-17T19:35:59.701Z,27.77
2023-03-17T19:38:31.288Z,24.50
2023-03-17T19:41:03.662Z,20.15
2023-03-17T19:43:41.288Z,28.35
2023-03-17T19:46:15.308Z,22.08
2023-03-17T19:48:45.529Z,23.00
2023-03-17T19:51:17.792Z,24.33
2023-03-17T19:53:50.807Z,30.02
2023-03-17T19:56:22.133Z,23.58
2023-03-17T19:58:52.580Z,28.00
2023-03-17T20:01:28.961Z,25.35
2023-03-17T20:03:59.412Z,34.08
2023-03-17T20:06:29.730Z,27.38
2023-03-17T20:09:01.079Z,24.23
2023-03-17T20:11:34.418Z,27.55
2023-03-17T20:14:08.040Z,23.83
2023-03-17T20:16:37.712Z,27.20
2023-03-17T20:19:08.316Z,24.63
2023-03-17T20:21:39.402Z,23.05
2023-03-17T20:24:14.633Z,22.58
2023-03-17T20:26:47.127Z,23.63
2023-03-17T20:29:18.260Z,23.58
2023-03-17T20:31:48.381Z,16.90
2023-03-17T20:34:18.652Z,24.70
2023-03-17T20:36:49.926Z,22.02
2023-03-17T20:39:21.517Z,25.30
2023-03-17T20:41:52.578Z,21.75
2023-03-17T20:44:25.435Z,27.13
2023-03-17T20:46:55.063Z,26.58
2023-03-17T20:49:31.005Z,28.17
2023-03-17T20:52:03.187Z,26.08
2023-03-17T20:54:37.776Z,24.90
2023-03-17T20:57:07.344Z,28.70
2023-03-17T20:59:37.392Z,30.50
2023-03-17T21:02:15.143Z,23.58
2023-03-17T21:04:49.032Z,24.05
2023-03-17T21:07:21.156Z,28.65
2023-03-17T21:09:56.455Z,20.60
2023-03-17T21:12:28.080Z,31.63
2023-03-17T21:15:01.729Z,22.80
2023-03-17T21:17:36.614Z,26.88
2023-03-17T21:20:09.640Z,25.10
2023-03-17T21:22:41.326Z,30.65
2023-03-17T21:25:13.553Z,25.88
2023-03-17T21:27:46.699Z,25.08
2023-03-17T21:30:17.945Z,25.08
2023-03-17T21:32:48.851Z,28.85
2023-03-17T21:37:48.102Z,29.80
2023-03-17T21:40:23.629Z,30.48
2023-03-17T21:42:52.983Z,25.45
2023-03-17T21:45:25.993Z,26.52
2023-03-17T21:47:58.925Z,21.48
2023-03-17T21:50:29.176Z,32.20
2023-03-17T21:53:00.879Z,29.42
2023-03-17T21:55:35.902Z,26.52
2023-03-17T21:58:08.515Z,30.13
2023-03-17T22:00:45.202Z,30.35
2023-03-17T22:03:14.973Z,29.88
2023-03-17T22:05:47.189Z,26.23
2023-03-17T22:08:16.456Z,24.10
2023-03-17T22:10:47.220Z,24.02
2023-03-17T22:13:16.568Z,26.30
2023-03-17T22:15:46.132Z,25.25
2023-03-17T22:18:18.413Z,30.70
2023-03-17T22:20:47.854Z,30.98
2023-03-17T22:23:17.049Z,23.70
2023-03-17T22:25:47.857Z,29.80
2023-03-17T22:28:18.912Z,24.73
2023-03-17T22:30:49.254Z,27.52
2023-03-17T22:33:18.621Z,22.55
2023-03-17T22:35:48.074Z,27.20
2023-03-17T22:38:17.952Z,27.70
2023-03-17T22:40:48.736Z,25.45
2023-03-17T22:43:17.949Z,28.23
2023-03-17T22:45:48.615Z,25.80
2023-03-17T22:48:17.703Z,21.90
2023-03-17T22:50:46.982Z,23.52
2023-03-17T22:53:16.070Z,26.08
2023-03-17T22:55:47.645Z,27.15
2023-03-17T22:58:16.802Z,28.98
2023-03-17T23:00:47.809Z,26.63
2023-03-17T23:03:17.393Z,26.45
2023-03-17T23:05:48.042Z,26.35
2023-03-17T23:08:17.526Z,28.20
2023-03-17T23:10:50.273Z,29.73
2023-03-17T23:13:20.929Z,27.73
2023-03-17T23:15:51.244Z,22.48
2023-03-17T23:18:20.348Z,28.20
2023-03-17T23:20:49.798Z,34.05
2023-03-17T23:23:19.996Z,30.75
2023-03-17T23:25:51.998Z,28.15
2023-03-17T23:28:21.539Z,25.25
2023-03-17T23:30:51.175Z,28.05
2023-03-17T23:33:22.833Z,27.88
2023-03-17T23:35:52.896Z,23.63
2023-03-17T23:38:22.718Z,23.15
2023-03-17T23:40:56.740Z,21.90
2023-03-17T23:43:27.537Z,26.90
2023-03-17T23:45:56.930Z,16.55
2023-03-17T23:48:26.064Z,28.45
2023-03-17T23:50:55.758Z,23.67
2023-03-17T23:53:26.438Z,23.42
2023-03-17T23:56:00.056Z,31.30
2023-03-17T23:58:29.279Z,28.77
